createdAt,value
2017-08-11T00:01:00.868Z,15.20
2017-08-11T00:03:27.724Z,15.30
2017-08-11T00:05:54.656Z,15.20
2017-08-11T00:08:21.528Z,15.20
2017-08-11T00:10:47.649Z,15.20
2017-08-11T00:13:14.061Z,15.20
2017-08-11T00:15:40.935Z,15.10
2017-08-11T00:18:07.072Z,15.10
2017-08-11T00:20:33.233Z,15.00
2017-08-11T00:22:59.379Z,15.10
2017-08-11T00:25:26.252Z,15.10
2017-08-11T00:27:52.389Z,15.10
2017-08-11T00:30:18.497Z,15.10
2017-08-11T00:32:44.625Z,15.10
2017-08-11T00:35:11.595Z,15.10
2017-08-11T00:37:38.085Z,15.10
2017-08-11T00:40:04.224Z,15.10
2017-08-11T00:42:30.613Z,15.10
2017-08-11T00:44:56.743Z,15.10
2017-08-11T00:47:22.865Z,15.10
2017-08-11T00:49:49.012Z,15.10
2017-08-11T00:52:15.945Z,15.10
2017-08-11T00:54:42.106Z,15.10
2017-08-11T00:57:08.640Z,15.10
2017-08-11T00:59:34.991Z,15.10
2017-08-11T01:02:01.516Z,15.10
2017-08-11T01:04:27.645Z,15.10
2017-08-11T01:06:53.759Z,15.10
2017-08-11T01:09:20.017Z,15.10
2017-08-11T01:11:46.155Z,15.00
2017-08-11T01:14:12.303Z,15.00
2017-08-11T01:16:38.455Z,15.00
2017-08-11T01:19:05.350Z,15.10
2017-08-11T01:21:31.482Z,15.10
2017-08-11T01:23:57.857Z,15.10
2017-08-11T01:26:23.984Z,15.10
2017-08-11T01:28:50.880Z,15.00
2017-08-11T01:31:17.312Z,15.00
2017-08-11T01:33:43.729Z,15.00
2017-08-11T01:36:09.897Z,15.00
2017-08-11T01:38:36.040Z,15.00
2017-08-11T01:41:02.961Z,15.00
2017-08-11T01:43:29.078Z,14.90
2017-08-11T01:45:55.268Z,15.00
2017-08-11T01:48:21.387Z,15.00
2017-08-11T01:50:47.515Z,15.00
2017-08-11T01:53:13.657Z,15.00
2017-08-11T01:55:39.793Z,15.00
2017-08-11T01:58:05.932Z,14.90
2017-08-11T02:00:32.067Z,14.90
2017-08-11T02:02:58.190Z,14.90
2017-08-11T02:05:24.351Z,14.90
2017-08-11T02:07:50.506Z,14.90
2017-08-11T02:10:16.647Z,15.00
2017-08-11T02:12:42.828Z,15.00
2017-08-11T02:15:08.953Z,15.00
2017-08-11T02:17:35.047Z,14.90
2017-08-11T02:20:01.174Z,14.90
2017-08-11T02:22:27.323Z,14.90
2017-08-11T02:24:54.189Z,14.90
2017-08-11T02:27:20.321Z,14.90
2017-08-11T02:29:46.444Z,14.90
2017-08-11T02:32:12.549Z,15.00
2017-08-11T02:34:38.686Z,15.00
2017-08-11T02:37:04.795Z,15.00
2017-08-11T02:39:31.678Z,15.00
2017-08-11T02:41:57.836Z,15.00
2017-08-11T02:44:23.953Z,15.10
2017-08-11T02:46:50.055Z,15.00
2017-08-11T02:49:16.191Z,15.00
2017-08-11T02:51:42.295Z,15.00
2017-08-11T02:54:08.413Z,14.90
2017-08-11T02:56:34.888Z,14.90
2017-08-11T02:59:01.003Z,14.90
2017-08-11T03:01:27.112Z,14.90
2017-08-11T03:03:53.329Z,14.80
2017-08-11T03:06:19.446Z,14.90
2017-08-11T03:08:45.556Z,14.90
2017-08-11T03:11:12.595Z,14.90
2017-08-11T03:13:39.455Z,14.90
2017-08-11T03:16:05.583Z,14.90
2017-08-11T03:18:31.695Z,14.90
2017-08-11T03:20:58.666Z,15.00
2017-08-11T03:23:24.805Z,14.90
2017-08-11T03:25:50.921Z,15.00
2017-08-11T03:28:17.028Z,14.90
2017-08-11T03:30:43.157Z,14.90
2017-08-11T03:33:09.273Z,15.00
2017-08-11T03:35:35.380Z,15.00
2017-08-11T03:38:02.272Z,15.00
2017-08-11T03:40:28.392Z,15.00
2017-08-11T03:42:54.518Z,15.00
2017-08-11T03:45:20.681Z,15.10
2017-08-11T03:47:46.797Z,15.10
2017-08-11T03:50:12.920Z,15.00
2017-08-11T03:52:39.039Z,15.00
2017-08-11T03:55:05.177Z,15.00
2017-08-11T03:57:31.308Z,15.00
2017-08-11T03:59:57.432Z,15.00
2017-08-11T04:02:23.548Z,15.10
2017-08-11T04:04:49.808Z,15.00
2017-08-11T04:07:16.670Z,15.10
2017-08-11T04:09:42.786Z,15.00
2017-08-11T04:12:09.663Z,15.10
2017-08-11T04:14:35.770Z,15.00
2017-08-11T04:17:01.944Z,15.10
2017-08-11T04:19:28.166Z,15.10
2017-08-11T04:21:54.296Z,15.00
2017-08-11T04:24:20.396Z,15.00
2017-08-11T04:26:46.538Z,15.00
2017-08-11T04:29:12.653Z,15.00
2017-08-11T04:31:38.757Z,15.00
2017-08-11T04:34:04.904Z,15.00
2017-08-11T04:36:31.017Z,15.00
2017-08-11T04:38:57.127Z,15.00
2017-08-11T04:41:23.497Z,15.00
2017-08-11T04:43:49.602Z,15.00
2017-08-11T04:46:15.704Z,15.10
2017-08-11T04:48:42.079Z,15.10
2017-08-11T04:51:08.260Z,15.10
2017-08-11T04:53:34.384Z,15.10
2017-08-11T04:56:01.262Z,15.10
2017-08-11T04:58:27.369Z,15.10
2017-08-11T05:00:53.487Z,15.10
2017-08-11T05:03:19.625Z,15.20
2017-08-11T05:05:45.732Z,15.20
2017-08-11T05:08:11.836Z,15.20
2017-08-11T05:10:38.951Z,15.30
2017-08-11T05:13:05.070Z,15.30
2017-08-11T05:15:31.175Z,15.30
2017-08-11T05:17:57.284Z,15.40
2017-08-11T05:20:23.408Z,15.30
2017-08-11T05:22:49.645Z,15.40
2017-08-11T05:25:15.752Z,15.40
2017-08-11T05:27:42.636Z,15.50
2017-08-11T05:30:08.779Z,15.50
2017-08-11T05:32:34.888Z,15.50
2017-08-11T05:35:00.994Z,15.40
2017-08-11T05:37:27.135Z,15.50
2017-08-11T05:39:53.243Z,15.50
2017-08-11T05:42:19.357Z,15.50
2017-08-11T05:44:45.511Z,15.40
2017-08-11T05:47:11.616Z,15.40
2017-08-11T05:49:37.736Z,15.50
2017-08-11T05:52:03.880Z,15.40
2017-08-11T05:54:29.996Z,15.50
2017-08-11T05:56:56.099Z,15.60
2017-08-11T05:59:23.056Z,15.60
2017-08-11T06:01:49.159Z,15.60
2017-08-11T06:04:15.332Z,15.50
2017-08-11T06:06:41.784Z,15.50
2017-08-11T06:09:07.901Z,15.50
2017-08-11T06:11:34.052Z,15.50
2017-08-11T06:14:00.189Z,15.50
2017-08-11T06:16:26.300Z,15.40
2017-08-11T06:18:52.428Z,15.40
2017-08-11T06:21:18.745Z,15.40
2017-08-11T06:23:44.856Z,15.40
2017-08-11T06:26:10.962Z,15.40
2017-08-11T06:28:37.145Z,15.40
2017-08-11T06:31:03.247Z,15.40
2017-08-11T06:33:29.349Z,15.30
2017-08-11T06:35:55.484Z,15.30
2017-08-11T06:38:21.604Z,15.30
2017-08-11T06:40:47.732Z,15.30
2017-08-11T06:43:14.080Z,15.30
2017-08-11T06:45:40.220Z,15.40
2017-08-11T06:48:06.333Z,15.50
2017-08-11T06:50:32.474Z,15.40
2017-08-11T06:52:58.586Z,15.50
2017-08-11T06:55:24.703Z,15.50
2017-08-11T06:57:50.857Z,15.50
2017-08-11T07:00:16.976Z,15.50
2017-08-11T07:02:43.085Z,15.50
2017-08-11T07:05:09.231Z,15.50
2017-08-11T07:07:35.348Z,15.60
2017-08-11T07:10:01.500Z,15.70
2017-08-11T07:12:28.364Z,15.80
2017-08-11T07:14:54.485Z,15.80
2017-08-11T07:17:20.595Z,15.80
2017-08-11T07:19:47.467Z,15.90
2017-08-11T07:22:13.577Z,15.80
2017-08-11T07:24:39.734Z,15.90
2017-08-11T07:27:05.864Z,15.90
2017-08-11T07:29:31.983Z,15.90
2017-08-11T07:31:58.432Z,16.00
2017-08-11T07:34:24.532Z,16.00
2017-08-11T07:36:50.672Z,16.20
2017-08-11T07:39:17.116Z,16.20
2017-08-11T07:41:43.247Z,16.20
2017-08-11T07:44:09.368Z,16.20
2017-08-11T07:46:35.797Z,16.20
2017-08-11T07:49:01.924Z,16.30
2017-08-11T07:51:28.035Z,16.30
2017-08-11T07:53:54.160Z,16.30
2017-08-11T07:56:20.275Z,16.30
2017-08-11T07:58:46.375Z,16.30
2017-08-11T08:01:13.251Z,16.40
2017-08-11T08:03:39.366Z,16.40
2017-08-11T08:06:05.471Z,16.50
2017-08-11T08:08:31.622Z,16.50
2017-08-11T08:10:58.249Z,16.40
2017-08-11T08:13:24.384Z,16.40
2017-08-11T08:15:50.492Z,16.40
2017-08-11T08:18:16.608Z,16.40
2017-08-11T08:20:43.520Z,16.40
2017-08-11T08:23:09.636Z,16.40
2017-08-11T08:25:35.760Z,16.40
2017-08-11T08:28:02.287Z,16.30
2017-08-11T08:30:28.397Z,16.40
2017-08-11T08:32:54.511Z,16.40
2017-08-11T08:35:20.672Z,16.50
2017-08-11T08:37:46.786Z,16.60
2017-08-11T08:40:12.891Z,16.50
2017-08-11T08:42:39.055Z,16.50
2017-08-11T08:45:05.163Z,16.50
2017-08-11T08:47:31.278Z,16.60
2017-08-11T08:49:57.417Z,16.70
2017-08-11T08:52:23.525Z,16.60
2017-08-11T08:54:49.648Z,16.60
2017-08-11T08:57:15.805Z,16.70
2017-08-11T08:59:41.912Z,16.70
2017-08-11T09:02:08.048Z,16.60
2017-08-11T09:04:34.213Z,16.60
2017-08-11T09:07:01.064Z,16.80
2017-08-11T09:09:27.911Z,16.70
2017-08-11T09:11:54.806Z,16.60
2017-08-11T09:14:20.916Z,16.60
2017-08-11T09:16:47.032Z,16.60
2017-08-11T09:19:13.190Z,16.70
2017-08-11T09:21:39.716Z,16.70
2017-08-11T09:24:05.860Z,16.80
2017-08-11T09:26:44.403Z,16.80
2017-08-11T09:29:23.816Z,16.80
2017-08-11T09:32:02.199Z,16.80
2017-08-11T09:34:40.942Z,16.90
2017-08-11T09:37:07.072Z,16.90
2017-08-11T09:39:33.187Z,16.90
2017-08-11T09:41:59.320Z,17.00
2017-08-11T09:44:25.416Z,16.90
2017-08-11T09:46:51.522Z,16.90
2017-08-11T09:49:17.685Z,16.80
2017-08-11T09:51:43.808Z,16.80
2017-08-11T09:54:09.907Z,17.00
2017-08-11T09:56:36.045Z,17.10
2017-08-11T09:59:02.160Z,17.00
2017-08-11T10:01:28.283Z,17.10
2017-08-11T10:03:54.417Z,17.00
2017-08-11T10:06:20.511Z,17.00
2017-08-11T10:08:47.379Z,17.00
2017-08-11T10:11:13.537Z,17.00
2017-08-11T10:13:39.659Z,17.10
2017-08-11T10:16:05.808Z,17.20
2017-08-11T10:18:31.973Z,17.20
2017-08-11T10:20:58.253Z,17.10
2017-08-11T10:23:24.430Z,16.90
2017-08-11T10:25:50.586Z,17.10
2017-08-11T10:28:16.713Z,16.90
2017-08-11T10:30:43.061Z,16.90
2017-08-11T10:33:09.208Z,17.00
2017-08-11T10:35:36.071Z,17.10
2017-08-11T10:38:02.208Z,17.10
2017-08-11T10:40:28.333Z,17.20
2017-08-11T10:42:54.453Z,17.20
2017-08-11T10:45:20.630Z,17.10
2017-08-11T10:47:46.761Z,17.10
2017-08-11T10:50:12.889Z,17.10
2017-08-11T10:52:39.001Z,17.10
2017-08-11T10:55:05.149Z,17.00
2017-08-11T10:57:31.265Z,16.90
2017-08-11T10:59:57.363Z,17.00
2017-08-11T11:02:24.040Z,16.80
2017-08-11T11:04:50.140Z,16.70
2017-08-11T11:07:16.252Z,16.90
2017-08-11T11:09:42.392Z,16.90
2017-08-11T11:12:08.501Z,17.00
2017-08-11T11:14:34.635Z,17.10
2017-08-11T11:17:00.862Z,17.10
2017-08-11T11:19:26.967Z,17.00
2017-08-11T11:21:53.092Z,17.00
2017-08-11T11:24:19.680Z,16.90
2017-08-11T11:26:45.803Z,17.00
2017-08-11T11:29:11.908Z,16.90
2017-08-11T11:31:38.040Z,16.80
2017-08-11T11:34:04.159Z,16.80
2017-08-11T11:36:30.285Z,16.80
2017-08-11T11:38:56.432Z,16.80
2017-08-11T11:41:22.539Z,16.80
2017-08-11T11:43:48.643Z,16.90
2017-08-11T11:46:14.787Z,17.00
2017-08-11T11:48:40.940Z,17.00
2017-08-11T11:51:07.052Z,16.90
2017-08-11T11:53:33.569Z,16.70
2017-08-11T11:55:59.694Z,16.70
2017-08-11T11:58:25.807Z,16.60
2017-08-11T12:00:51.932Z,16.50
2017-08-11T12:03:18.049Z,16.50
2017-08-11T12:05:44.182Z,16.60
2017-08-11T12:08:10.329Z,16.60
2017-08-11T12:10:36.447Z,16.50
2017-08-11T12:13:02.667Z,16.50
2017-08-11T12:15:28.775Z,16.50
2017-08-11T12:17:54.887Z,16.60
2017-08-11T12:20:21.046Z,16.60
2017-08-11T12:22:47.186Z,16.70
2017-08-11T12:25:13.305Z,16.70
2017-08-11T12:27:39.505Z,16.70
2017-08-11T12:30:05.614Z,16.70
2017-08-11T12:32:31.736Z,16.60
2017-08-11T12:34:57.897Z,16.60
2017-08-11T12:37:24.008Z,16.60
2017-08-11T12:39:50.115Z,16.60
2017-08-11T12:42:16.232Z,16.70
2017-08-11T12:44:43.333Z,16.90
2017-08-11T12:47:09.478Z,16.90
2017-08-11T12:49:35.579Z,16.90
2017-08-11T12:52:01.712Z,16.80
2017-08-11T12:54:27.821Z,16.90
2017-08-11T12:56:53.931Z,17.00
2017-08-11T12:59:20.391Z,16.90
2017-08-11T13:01:46.524Z,16.90
2017-08-11T13:04:12.633Z,16.70
2017-08-11T13:06:38.776Z,16.70
2017-08-11T13:09:04.892Z,16.60
2017-08-11T13:11:31.024Z,16.60
2017-08-11T13:13:57.152Z,16.60
2017-08-11T13:16:23.260Z,16.60
2017-08-11T13:18:49.373Z,16.60
2017-08-11T13:21:15.831Z,16.60
2017-08-11T13:23:41.940Z,16.60
2017-08-11T13:26:08.173Z,16.50
2017-08-11T13:28:34.347Z,16.50
2017-08-11T13:31:01.204Z,16.30
2017-08-11T13:33:28.060Z,16.30
2017-08-11T13:35:54.199Z,16.20
2017-08-11T13:38:20.318Z,16.30
2017-08-11T13:40:46.432Z,16.10
2017-08-11T13:43:12.841Z,16.00
2017-08-11T13:45:39.719Z,15.90
2017-08-11T13:48:05.838Z,15.90
2017-08-11T13:50:32.411Z,16.00
2017-08-11T13:52:58.525Z,15.90
2017-08-11T13:55:24.645Z,15.80
2017-08-11T13:57:50.778Z,15.70
2017-08-11T14:00:17.768Z,15.80
2017-08-11T14:02:44.630Z,16.10
2017-08-11T14:05:10.747Z,16.00
2017-08-11T14:07:37.598Z,16.30
2017-08-11T14:10:04.587Z,16.30
2017-08-11T14:12:31.503Z,16.10
2017-08-11T14:14:57.630Z,16.10
2017-08-11T14:17:23.795Z,16.20
2017-08-11T14:19:49.912Z,16.20
2017-08-11T14:22:16.116Z,16.30
2017-08-11T14:24:47.233Z,16.20
2017-08-11T14:27:13.691Z,16.20
2017-08-11T14:29:40.761Z,16.20
2017-08-11T14:32:07.742Z,16.10
2017-08-11T14:34:33.920Z,16.10
2017-08-11T14:37:00.261Z,16.20
2017-08-11T14:39:26.369Z,16.20
2017-08-11T14:41:52.482Z,16.20
2017-08-11T14:44:19.076Z,16.10
2017-08-11T14:46:45.502Z,16.10
2017-08-11T14:49:11.811Z,16.10
2017-08-11T14:51:37.964Z,16.10
2017-08-11T14:54:04.120Z,15.90
2017-08-11T14:56:30.247Z,15.80
2017-08-11T14:58:56.377Z,16.00
2017-08-11T15:01:22.496Z,15.90
2017-08-11T15:03:48.966Z,15.90
2017-08-11T15:06:15.615Z,15.90
2017-08-11T15:08:41.971Z,16.00
2017-08-11T15:11:08.101Z,16.00
2017-08-11T15:13:35.167Z,16.00
2017-08-11T15:16:01.345Z,16.00
2017-08-11T15:18:27.460Z,15.90
2017-08-11T15:20:53.585Z,16.00
2017-08-11T15:23:19.852Z,15.90
2017-08-11T15:25:46.721Z,15.90
2017-08-11T15:28:13.735Z,15.90
2017-08-11T15:30:39.935Z,16.00
2017-08-11T15:33:06.057Z,16.00
2017-08-11T15:35:32.284Z,15.80
2017-08-11T15:37:58.414Z,15.80
2017-08-11T15:40:24.554Z,15.80
2017-08-11T15:42:50.675Z,15.90
2017-08-11T15:45:16.804Z,16.00
2017-08-11T15:47:42.947Z,15.90
2017-08-11T15:50:09.070Z,16.00
2017-08-11T15:52:35.204Z,16.00
2017-08-11T15:55:01.604Z,15.90
2017-08-11T15:57:27.711Z,15.90
2017-08-11T15:59:53.854Z,15.90
2017-08-11T16:02:20.992Z,15.80
2017-08-11T16:04:47.143Z,15.80
2017-08-11T16:07:13.254Z,15.80
2017-08-11T16:09:39.427Z,15.80
2017-08-11T16:12:06.288Z,15.80
2017-08-11T16:14:32.423Z,15.70
2017-08-11T16:16:59.307Z,15.80
2017-08-11T16:19:25.814Z,15.70
2017-08-11T16:21:52.329Z,15.70
2017-08-11T16:24:18.841Z,15.60
2017-08-11T16:26:45.992Z,15.50
2017-08-11T16:29:13.099Z,15.50
2017-08-11T16:31:39.528Z,15.50
2017-08-11T16:34:05.656Z,15.40
2017-08-11T16:36:32.196Z,15.40
2017-08-11T16:38:58.304Z,15.30
2017-08-11T16:41:24.450Z,15.30
2017-08-11T16:43:51.081Z,15.30
2017-08-11T16:46:17.371Z,15.30
2017-08-11T16:48:43.723Z,15.30
2017-08-11T16:51:10.234Z,15.20
2017-08-11T16:53:36.365Z,15.20
2017-08-11T16:56:02.489Z,15.20
2017-08-11T16:58:28.823Z,15.10
2017-08-11T17:00:54.940Z,15.00
2017-08-11T17:03:21.053Z,15.10
2017-08-11T17:05:48.266Z,15.00
2017-08-11T17:08:14.473Z,15.00
2017-08-11T17:10:40.583Z,15.00
2017-08-11T17:13:06.856Z,15.00
2017-08-11T17:15:32.972Z,14.90
2017-08-11T17:17:59.073Z,14.90
2017-08-11T17:20:25.215Z,14.80
2017-08-11T17:22:51.315Z,14.80
2017-08-11T17:25:17.430Z,14.80
2017-08-11T17:27:43.569Z,14.90
2017-08-11T17:30:09.693Z,14.90
2017-08-11T17:32:35.792Z,14.90
2017-08-11T17:35:02.828Z,14.90
2017-08-11T17:37:29.693Z,14.80
2017-08-11T17:39:55.815Z,14.80
2017-08-11T17:42:21.997Z,14.80
2017-08-11T17:44:48.973Z,14.70
2017-08-11T17:47:15.820Z,14.90
2017-08-11T17:49:42.932Z,14.90
2017-08-11T17:52:09.048Z,14.90
2017-08-11T17:54:35.201Z,15.00
2017-08-11T17:57:01.324Z,15.00
2017-08-11T17:59:27.424Z,15.00
2017-08-11T18:01:53.577Z,14.90
2017-08-11T18:04:19.699Z,15.20
2017-08-11T18:06:45.800Z,15.10
2017-08-11T18:09:12.027Z,15.00
2017-08-11T18:11:38.143Z,15.00
2017-08-11T18:14:04.275Z,15.00
2017-08-11T18:16:30.608Z,15.00
2017-08-11T18:18:56.721Z,15.10
2017-08-11T18:21:22.833Z,15.10
2017-08-11T18:23:49.011Z,15.00
2017-08-11T18:26:15.211Z,14.80
2017-08-11T18:28:41.366Z,14.80
2017-08-11T18:31:07.472Z,14.90
2017-08-11T18:33:33.587Z,14.90
2017-08-11T18:35:59.733Z,15.00
2017-08-11T18:38:25.844Z,15.10
2017-08-11T18:40:51.955Z,15.10
2017-08-11T18:43:18.071Z,15.20
2017-08-11T18:45:44.524Z,15.20
2017-08-11T18:48:10.636Z,15.20
2017-08-11T18:50:36.780Z,15.10
2017-08-11T18:53:02.905Z,15.10
2017-08-11T18:55:29.014Z,15.30
2017-08-11T18:57:55.135Z,15.50
2017-08-11T19:00:21.281Z,15.70
2017-08-11T19:02:47.379Z,15.80
2017-08-11T19:05:13.495Z,15.60
2017-08-11T19:07:39.634Z,15.50
2017-08-11T19:10:05.746Z,15.40
2017-08-11T19:12:31.862Z,15.40
2017-08-11T19:14:58.013Z,15.30
2017-08-11T19:17:24.132Z,15.10
2017-08-11T19:19:50.243Z,15.00
2017-08-11T19:22:16.387Z,14.90
2017-08-11T19:24:42.508Z,14.80
2017-08-11T19:27:08.615Z,14.90
2017-08-11T19:29:34.724Z,14.90
2017-08-11T19:32:00.837Z,14.90
2017-08-11T19:34:26.997Z,14.80
2017-08-11T19:36:53.120Z,14.80
2017-08-11T19:39:19.244Z,14.90
2017-08-11T19:41:45.387Z,15.00
2017-08-11T19:44:11.516Z,15.00
2017-08-11T19:46:37.624Z,15.00
2017-08-11T19:49:04.004Z,14.90
2017-08-11T19:51:30.133Z,14.90
2017-08-11T19:53:56.250Z,14.90
2017-08-11T19:56:22.376Z,15.10
2017-08-11T19:58:48.486Z,15.10
2017-08-11T20:01:14.599Z,15.00
2017-08-11T20:03:40.953Z,15.20
2017-08-11T20:06:07.135Z,15.20
2017-08-11T20:08:33.250Z,15.00
2017-08-11T20:11:00.150Z,15.00
2017-08-11T20:13:26.260Z,14.90
2017-08-11T20:15:52.382Z,15.00
2017-08-11T20:18:18.789Z,14.90
2017-08-11T20:20:44.916Z,15.00
2017-08-11T20:23:11.073Z,14.70
2017-08-11T20:25:37.196Z,14.70
2017-08-11T20:28:03.693Z,14.60
2017-08-11T20:30:30.620Z,14.60
2017-08-11T20:32:57.721Z,14.70
2017-08-11T20:35:23.883Z,14.70
2017-08-11T20:37:51.836Z,14.80
2017-08-11T20:40:17.960Z,14.70
2017-08-11T20:42:44.085Z,14.80
2017-08-11T20:45:10.420Z,14.80
2017-08-11T20:47:36.528Z,14.70
2017-08-11T20:50:02.640Z,14.70
2017-08-11T20:52:29.200Z,14.70
2017-08-11T20:54:55.553Z,14.70
2017-08-11T20:57:21.685Z,14.70
2017-08-11T20:59:47.868Z,14.80
2017-08-11T21:02:13.964Z,14.80
2017-08-11T21:04:40.140Z,14.70
2017-08-11T21:07:06.294Z,14.80
2017-08-11T21:09:32.768Z,14.70
2017-08-11T21:11:58.969Z,14.80
2017-08-11T21:14:25.659Z,14.80
2017-08-11T21:16:51.764Z,14.80
2017-08-11T21:19:18.219Z,14.70
2017-08-11T21:21:44.324Z,14.70
2017-08-11T21:24:10.443Z,14.60
2017-08-11T21:26:37.004Z,14.60
2017-08-11T21:29:03.425Z,14.60
2017-08-11T21:31:29.696Z,14.70
2017-08-11T21:33:55.894Z,14.60
2017-08-11T21:36:22.797Z,14.70
2017-08-11T21:38:48.916Z,14.60
2017-08-11T21:41:15.952Z,14.70
2017-08-11T21:43:42.815Z,14.70
2017-08-11T21:46:08.928Z,14.80
2017-08-11T21:48:35.805Z,14.70
2017-08-11T21:51:01.920Z,14.70
2017-08-11T21:53:28.288Z,14.70
2017-08-11T21:55:54.607Z,14.70
2017-08-11T21:58:20.719Z,14.70
2017-08-11T22:00:46.837Z,14.70
2017-08-11T22:03:13.293Z,14.70
2017-08-11T22:05:39.405Z,14.70
2017-08-11T22:08:05.519Z,14.60
2017-08-11T22:10:31.656Z,14.70
2017-08-11T22:12:57.768Z,14.60
2017-08-11T22:15:23.883Z,14.60
2017-08-11T22:17:50.018Z,14.70
2017-08-11T22:20:16.146Z,14.70
2017-08-11T22:22:42.268Z,14.70
2017-08-11T22:25:08.382Z,14.70
2017-08-11T22:27:34.495Z,14.80
2017-08-11T22:30:01.377Z,14.70
2017-08-11T22:32:27.492Z,14.70
2017-08-11T22:34:53.605Z,14.60
2017-08-11T22:37:19.743Z,14.70
2017-08-11T22:39:45.865Z,14.70
2017-08-11T22:42:12.016Z,14.60
2017-08-11T22:44:38.155Z,14.60
2017-08-11T22:47:04.255Z,14.60
2017-08-11T22:49:30.373Z,14.60
2017-08-11T22:51:56.525Z,14.60
2017-08-11T22:54:22.642Z,14.60
2017-08-11T22:56:48.750Z,14.50
2017-08-11T22:59:14.880Z,14.60
2017-08-11T23:01:41.012Z,14.50
2017-08-11T23:04:07.124Z,14.50
2017-08-11T23:06:33.289Z,14.50
2017-08-11T23:08:59.395Z,14.40
2017-08-11T23:11:25.518Z,14.50
2017-08-11T23:13:51.631Z,14.40
2017-08-11T23:16:17.749Z,14.40
2017-08-11T23:18:43.905Z,14.40
2017-08-11T23:21:10.016Z,14.40
2017-08-11T23:23:36.129Z,14.40
2017-08-11T23:26:02.286Z,14.40
2017-08-11T23:28:28.404Z,14.40
2017-08-11T23:30:54.514Z,14.40
2017-08-11T23:33:20.631Z,14.40
2017-08-11T23:35:46.752Z,14.40
2017-08-11T23:38:12.885Z,14.40
2017-08-11T23:40:39.005Z,14.40
2017-08-11T23:43:05.125Z,14.30
2017-08-11T23:45:31.256Z,14.30
2017-08-11T23:47:57.385Z,14.30
2017-08-11T23:50:23.505Z,14.30
2017-08-11T23:52:49.874Z,14.30
2017-08-11T23:55:15.998Z,14.30
2017-08-11T23:57:42.112Z,14.30
